sensor_id;sensor_type;location;lat;lon;timestamp;temperature;humidity
52187;DHT22;38161;53.020;6.598;2024-03-22T00:01:54;9.20;99.90
52187;DHT22;38161;53.020;6.598;2024-03-22T00:04:21;9.20;99.90
52187;DHT22;38161;53.020;6.598;2024-03-22T00:06:49;9.20;99.90
52187;DHT22;38161;53.020;6.598;2024-03-22T00:09:16;9.20;99.90
52187;DHT22;38161;53.020;6.598;2024-03-22T00:11:42;9.30;99.90
52187;DHT22;38161;53.020;6.598;2024-03-22T00:14:10;9.20;99.90
52187;DHT22;38161;53.020;6.598;2024-03-22T00:16:37;9.30;99.90
52187;DHT22;38161;53.020;6.598;2024-03-22T00:19:03;9.30;99.90
52187;DHT22;38161;53.020;6.598;2024-03-22T00:21:29;9.30;99.90
52187;DHT22;38161;53.020;6.598;2024-03-22T00:23:55;9.30;99.90
52187;DHT22;38161;53.020;6.598;2024-03-22T00:26:21;9.30;99.90
52187;DHT22;38161;53.020;6.598;2024-03-22T00:28:47;9.30;99.90
52187;DHT22;38161;53.020;6.598;2024-03-22T00:31:13;9.30;99.90
52187;DHT22;38161;53.020;6.598;2024-03-22T00:33:39;9.30;99.90
52187;DHT22;38161;53.020;6.598;2024-03-22T00:36:05;9.40;99.90
52187;DHT22;38161;53.020;6.598;2024-03-22T00:38:32;9.40;99.90
52187;DHT22;38161;53.020;6.598;2024-03-22T00:40:58;9.30;99.90
52187;DHT22;38161;53.020;6.598;2024-03-22T00:43:24;9.40;99.90
52187;DHT22;38161;53.020;6.598;2024-03-22T00:45:49;9.40;99.90
52187;DHT22;38161;53.020;6.598;2024-03-22T00:48:15;9.40;99.90
52187;DHT22;38161;53.020;6.598;2024-03-22T00:50:41;9.40;99.90
52187;DHT22;38161;53.020;6.598;2024-03-22T00:53:07;9.40;99.90
52187;DHT22;38161;53.020;6.598;2024-03-22T00:55:33;9.40;99.90
52187;DHT22;38161;53.020;6.598;2024-03-22T00:57:59;9.40;99.90
52187;DHT22;38161;53.020;6.598;2024-03-22T01:00:25;9.40;99.90
52187;DHT22;38161;53.020;6.598;2024-03-22T01:02:51;9.40;99.90
52187;DHT22;38161;53.020;6.598;2024-03-22T01:05:17;9.40;99.90
52187;DHT22;38161;53.020;6.598;2024-03-22T01:07:43;9.40;99.90
52187;DHT22;38161;53.020;6.598;2024-03-22T01:10:11;9.50;99.90
52187;DHT22;38161;53.020;6.598;2024-03-22T01:12:37;9.50;99.90
52187;DHT22;38161;53.020;6.598;2024-03-22T01:15:05;9.40;99.90
52187;DHT22;38161;53.020;6.598;2024-03-22T01:17:31;9.50;99.90
52187;DHT22;38161;53.020;6.598;2024-03-22T01:19:57;9.50;99.90
52187;DHT22;38161;53.020;6.598;2024-03-22T01:22:23;9.50;99.90
52187;DHT22;38161;53.020;6.598;2024-03-22T01:24:49;9.50;99.90
52187;DHT22;38161;53.020;6.598;2024-03-22T01:27:15;9.50;99.90
52187;DHT22;38161;53.020;6.598;2024-03-22T01:29:40;9.50;99.90
52187;DHT22;38161;53.020;6.598;2024-03-22T01:32:06;9.50;99.90
52187;DHT22;38161;53.020;6.598;2024-03-22T01:34:32;9.50;99.90
52187;DHT22;38161;53.020;6.598;2024-03-22T01:36:58;9.50;99.90
52187;DHT22;38161;53.020;6.598;2024-03-22T01:39:24;9.50;99.90
52187;DHT22;38161;53.020;6.598;2024-03-22T01:41:50;9.50;99.90
52187;DHT22;38161;53.020;6.598;2024-03-22T01:44:17;9.60;99.90
52187;DHT22;38161;53.020;6.598;2024-03-22T01:46:44;9.50;99.90
52187;DHT22;38161;53.020;6.598;2024-03-22T01:49:14;9.50;99.90
52187;DHT22;38161;53.020;6.598;2024-03-22T01:51:41;9.60;99.90
52187;DHT22;38161;53.020;6.598;2024-03-22T01:54:09;9.60;99.90
52187;DHT22;38161;53.020;6.598;2024-03-22T01:56:38;9.60;99.90
52187;DHT22;38161;53.020;6.598;2024-03-22T01:59:05;9.60;99.90
52187;DHT22;38161;53.020;6.598;2024-03-22T02:01:31;9.70;99.90
52187;DHT22;38161;53.020;6.598;2024-03-22T02:03:57;9.70;99.90
52187;DHT22;38161;53.020;6.598;2024-03-22T02:06:23;9.70;99.90
52187;DHT22;38161;53.020;6.598;2024-03-22T02:08:49;9.70;99.90
52187;DHT22;38161;53.020;6.598;2024-03-22T02:11:14;9.70;99.90
52187;DHT22;38161;53.020;6.598;2024-03-22T02:13:40;9.70;99.90
52187;DHT22;38161;53.020;6.598;2024-03-22T02:16:08;9.80;99.90
52187;DHT22;38161;53.020;6.598;2024-03-22T02:18:34;9.80;99.90
52187;DHT22;38161;53.020;6.598;2024-03-22T02:21:00;9.80;99.90
52187;DHT22;38161;53.020;6.598;2024-03-22T02:23:36;9.80;99.90
52187;DHT22;38161;53.020;6.598;2024-03-22T02:26:02;9.80;99.90
52187;DHT22;38161;53.020;6.598;2024-03-22T02:28:29;9.80;99.90
52187;DHT22;38161;53.020;6.598;2024-03-22T02:30:56;9.90;99.90
52187;DHT22;38161;53.020;6.598;2024-03-22T02:33:21;9.80;99.90
52187;DHT22;38161;53.020;6.598;2024-03-22T02:35:48;9.90;99.90
52187;DHT22;38161;53.020;6.598;2024-03-22T02:38:14;9.90;99.90
52187;DHT22;38161;53.020;6.598;2024-03-22T02:40:40;9.90;99.90
52187;DHT22;38161;53.020;6.598;2024-03-22T02:43:06;9.90;99.90
52187;DHT22;38161;53.020;6.598;2024-03-22T02:45:32;9.90;99.90
52187;DHT22;38161;53.020;6.598;2024-03-22T02:47:58;10.00;99.90
52187;DHT22;38161;53.020;6.598;2024-03-22T02:50:23;10.00;99.90
52187;DHT22;38161;53.020;6.598;2024-03-22T02:52:49;10.00;99.90
52187;DHT22;38161;53.020;6.598;2024-03-22T02:55:15;10.00;99.90
52187;DHT22;38161;53.020;6.598;2024-03-22T02:57:41;10.00;99.90
52187;DHT22;38161;53.020;6.598;2024-03-22T03:00:07;10.00;99.90
52187;DHT22;38161;53.020;6.598;2024-03-22T03:02:33;10.00;99.90
52187;DHT22;38161;53.020;6.598;2024-03-22T03:04:59;10.00;99.90
52187;DHT22;38161;53.020;6.598;2024-03-22T03:07:25;10.00;99.90
52187;DHT22;38161;53.020;6.598;2024-03-22T03:09:51;10.00;99.90
52187;DHT22;38161;53.020;6.598;2024-03-22T03:12:17;10.00;99.90
52187;DHT22;38161;53.020;6.598;2024-03-22T03:14:42;10.10;99.90
52187;DHT22;38161;53.020;6.598;2024-03-22T03:17:08;10.00;99.90
52187;DHT22;38161;53.020;6.598;2024-03-22T03:19:34;10.00;99.90
52187;DHT22;38161;53.020;6.598;2024-03-22T03:22:00;10.00;99.90
52187;DHT22;38161;53.020;6.598;2024-03-22T03:24:26;10.00;99.90
52187;DHT22;38161;53.020;6.598;2024-03-22T03:26:51;10.10;99.90
52187;DHT22;38161;53.020;6.598;2024-03-22T03:29:17;10.10;99.90
52187;DHT22;38161;53.020;6.598;2024-03-22T03:31:43;10.10;99.90
52187;DHT22;38161;53.020;6.598;2024-03-22T03:34:09;10.10;99.90
52187;DHT22;38161;53.020;6.598;2024-03-22T03:36:34;10.00;99.90
52187;DHT22;38161;53.020;6.598;2024-03-22T03:39:00;10.10;99.90
52187;DHT22;38161;53.020;6.598;2024-03-22T03:41:26;10.00;99.90
52187;DHT22;38161;53.020;6.598;2024-03-22T03:43:52;10.00;99.90
52187;DHT22;38161;53.020;6.598;2024-03-22T03:46:17;10.00;99.90
52187;DHT22;38161;53.020;6.598;2024-03-22T03:48:43;10.10;99.90
52187;DHT22;38161;53.020;6.598;2024-03-22T03:51:09;10.10;99.90
52187;DHT22;38161;53.020;6.598;2024-03-22T03:53:34;10.10;99.90
52187;DHT22;38161;53.020;6.598;2024-03-22T03:56:00;10.10;99.90
52187;DHT22;38161;53.020;6.598;2024-03-22T03:58:26;10.10;99.90
52187;DHT22;38161;53.020;6.598;2024-03-22T04:00:52;10.10;99.90
52187;DHT22;38161;53.020;6.598;2024-03-22T04:03:18;10.10;99.90
52187;DHT22;38161;53.020;6.598;2024-03-22T04:05:44;10.10;99.90
52187;DHT22;38161;53.020;6.598;2024-03-22T04:08:10;10.10;99.90
52187;DHT22;38161;53.020;6.598;2024-03-22T04:10:36;10.10;99.90
52187;DHT22;38161;53.020;6.598;2024-03-22T04:13:01;10.10;99.90
52187;DHT22;38161;53.020;6.598;2024-03-22T04:15:28;10.10;99.90
52187;DHT22;38161;53.020;6.598;2024-03-22T04:17:55;10.10;99.90
52187;DHT22;38161;53.020;6.598;2024-03-22T04:20:21;10.20;99.90
52187;DHT22;38161;53.020;6.598;2024-03-22T04:22:47;10.20;99.90
52187;DHT22;38161;53.020;6.598;2024-03-22T04:25:15;10.20;99.90
52187;DHT22;38161;53.020;6.598;2024-03-22T04:27:41;10.20;99.90
52187;DHT22;38161;53.020;6.598;2024-03-22T04:30:07;10.20;99.90
52187;DHT22;38161;53.020;6.598;2024-03-22T04:32:34;10.20;99.90
52187;DHT22;38161;53.020;6.598;2024-03-22T04:34:59;10.20;99.90
52187;DHT22;38161;53.020;6.598;2024-03-22T04:37:25;10.20;99.90
52187;DHT22;38161;53.020;6.598;2024-03-22T04:39:51;10.20;99.90
52187;DHT22;38161;53.020;6.598;2024-03-22T04:42:17;10.20;99.90
52187;DHT22;38161;53.020;6.598;2024-03-22T04:44:43;10.20;99.90
52187;DHT22;38161;53.020;6.598;2024-03-22T04:47:08;10.20;99.90
52187;DHT22;38161;53.020;6.598;2024-03-22T04:49:34;10.20;99.90
52187;DHT22;38161;53.020;6.598;2024-03-22T04:52:00;10.20;99.90
52187;DHT22;38161;53.020;6.598;2024-03-22T04:54:26;10.20;99.90
52187;DHT22;38161;53.020;6.598;2024-03-22T04:56:51;10.20;99.90
52187;DHT22;38161;53.020;6.598;2024-03-22T04:59:17;10.20;99.90
52187;DHT22;38161;53.020;6.598;2024-03-22T05:01:43;10.20;99.90
52187;DHT22;38161;53.020;6.598;2024-03-22T05:04:09;10.20;99.90
52187;DHT22;38161;53.020;6.598;2024-03-22T05:06:35;10.20;99.90
52187;DHT22;38161;53.020;6.598;2024-03-22T05:09:01;10.20;99.90
52187;DHT22;38161;53.020;6.598;2024-03-22T05:11:29;10.20;99.90
52187;DHT22;38161;53.020;6.598;2024-03-22T05:13:55;10.20;99.90
52187;DHT22;38161;53.020;6.598;2024-03-22T05:16:20;10.20;99.90
52187;DHT22;38161;53.020;6.598;2024-03-22T05:18:46;10.20;99.90
52187;DHT22;38161;53.020;6.598;2024-03-22T05:21:12;10.20;99.90
52187;DHT22;38161;53.020;6.598;2024-03-22T05:23:38;10.20;99.90
52187;DHT22;38161;53.020;6.598;2024-03-22T05:26:04;10.20;99.90
52187;DHT22;38161;53.020;6.598;2024-03-22T05:28:29;10.20;99.90
52187;DHT22;38161;53.020;6.598;2024-03-22T05:30:56;10.20;99.90
52187;DHT22;38161;53.020;6.598;2024-03-22T05:33:21;10.20;99.90
52187;DHT22;38161;53.020;6.598;2024-03-22T05:35:47;10.20;99.90
52187;DHT22;38161;53.020;6.598;2024-03-22T05:38:13;10.20;99.90
52187;DHT22;38161;53.020;6.598;2024-03-22T05:40:39;10.10;99.90
52187;DHT22;38161;53.020;6.598;2024-03-22T05:43:05;10.10;99.90
52187;DHT22;38161;53.020;6.598;2024-03-22T05:45:30;10.00;99.90
52187;DHT22;38161;53.020;6.598;2024-03-22T05:47:57;10.00;99.90
52187;DHT22;38161;53.020;6.598;2024-03-22T05:50:22;9.90;99.90
52187;DHT22;38161;53.020;6.598;2024-03-22T05:52:48;9.90;99.90
52187;DHT22;38161;53.020;6.598;2024-03-22T05:55:14;9.90;99.90
52187;DHT22;38161;53.020;6.598;2024-03-22T05:57:40;9.80;99.90
52187;DHT22;38161;53.020;6.598;2024-03-22T06:00:06;9.80;99.90
52187;DHT22;38161;53.020;6.598;2024-03-22T06:02:34;9.80;99.90
52187;DHT22;38161;53.020;6.598;2024-03-22T06:05:00;9.80;99.90
52187;DHT22;38161;53.020;6.598;2024-03-22T06:07:26;9.80;99.90
52187;DHT22;38161;53.020;6.598;2024-03-22T06:09:52;9.80;99.90
52187;DHT22;38161;53.020;6.598;2024-03-22T06:12:18;9.80;99.90
52187;DHT22;38161;53.020;6.598;2024-03-22T06:14:44;9.80;99.90
52187;DHT22;38161;53.020;6.598;2024-03-22T06:17:10;9.80;99.90
52187;DHT22;38161;53.020;6.598;2024-03-22T06:19:37;9.80;99.90
52187;DHT22;38161;53.020;6.598;2024-03-22T06:22:03;9.80;99.90
52187;DHT22;38161;53.020;6.598;2024-03-22T06:24:29;9.80;99.90
52187;DHT22;38161;53.020;6.598;2024-03-22T06:26:55;9.80;99.90
52187;DHT22;38161;53.020;6.598;2024-03-22T06:29:20;9.80;99.90
52187;DHT22;38161;53.020;6.598;2024-03-22T06:31:47;9.80;99.90
52187;DHT22;38161;53.020;6.598;2024-03-22T06:34:12;9.80;99.90
52187;DHT22;38161;53.020;6.598;2024-03-22T06:36:38;9.80;99.90
52187;DHT22;38161;53.020;6.598;2024-03-22T06:39:04;9.80;99.90
52187;DHT22;38161;53.020;6.598;2024-03-22T06:41:34;9.80;99.90
52187;DHT22;38161;53.020;6.598;2024-03-22T06:44:00;9.80;99.90
52187;DHT22;38161;53.020;6.598;2024-03-22T06:46:27;9.70;99.90
52187;DHT22;38161;53.020;6.598;2024-03-22T06:48:53;9.80;99.90
52187;DHT22;38161;53.020;6.598;2024-03-22T06:51:19;9.80;99.90
52187;DHT22;38161;53.020;6.598;2024-03-22T06:53:45;9.80;99.90
52187;DHT22;38161;53.020;6.598;2024-03-22T06:56:11;9.80;99.90
52187;DHT22;38161;53.020;6.598;2024-03-22T06:58:40;9.80;99.90
52187;DHT22;38161;53.020;6.598;2024-03-22T07:01:06;9.80;99.90
52187;DHT22;38161;53.020;6.598;2024-03-22T07:03:32;9.80;99.90
52187;DHT22;38161;53.020;6.598;2024-03-22T07:05:57;9.80;99.90
52187;DHT22;38161;53.020;6.598;2024-03-22T07:08:24;9.80;99.90
52187;DHT22;38161;53.020;6.598;2024-03-22T07:10:50;9.80;99.90
52187;DHT22;38161;53.020;6.598;2024-03-22T07:13:18;9.80;99.90
52187;DHT22;38161;53.020;6.598;2024-03-22T07:15:45;9.80;99.90
52187;DHT22;38161;53.020;6.598;2024-03-22T07:18:11;9.80;99.90
52187;DHT22;38161;53.020;6.598;2024-03-22T07:20:36;9.80;99.90
52187;DHT22;38161;53.020;6.598;2024-03-22T07:23:02;9.90;99.90
52187;DHT22;38161;53.020;6.598;2024-03-22T07:25:30;9.90;99.90
52187;DHT22;38161;53.020;6.598;2024-03-22T07:27:57;9.90;99.90
52187;DHT22;38161;53.020;6.598;2024-03-22T07:30:22;9.90;99.90
52187;DHT22;38161;53.020;6.598;2024-03-22T07:32:48;9.90;99.90
52187;DHT22;38161;53.020;6.598;2024-03-22T07:35:14;9.90;99.90
52187;DHT22;38161;53.020;6.598;2024-03-22T07:37:40;9.90;99.90
52187;DHT22;38161;53.020;6.598;2024-03-22T07:40:06;9.90;99.90
52187;DHT22;38161;53.020;6.598;2024-03-22T07:42:32;9.90;99.90
52187;DHT22;38161;53.020;6.598;2024-03-22T07:44:58;9.90;99.90
52187;DHT22;38161;53.020;6.598;2024-03-22T07:47:24;9.90;99.90
52187;DHT22;38161;53.020;6.598;2024-03-22T07:49:50;9.90;99.90
52187;DHT22;38161;53.020;6.598;2024-03-22T07:52:16;9.90;99.90
52187;DHT22;38161;53.020;6.598;2024-03-22T07:54:42;9.90;99.90
52187;DHT22;38161;53.020;6.598;2024-03-22T07:57:08;9.90;99.90
52187;DHT22;38161;53.020;6.598;2024-03-22T07:59:36;9.90;99.90
52187;DHT22;38161;53.020;6.598;2024-03-22T08:02:02;9.90;99.90
52187;DHT22;38161;53.020;6.598;2024-03-22T08:04:28;9.90;99.90
52187;DHT22;38161;53.020;6.598;2024-03-22T08:06:54;9.80;99.90
52187;DHT22;38161;53.020;6.598;2024-03-22T08:09:20;9.80;99.90
52187;DHT22;38161;53.020;6.598;2024-03-22T08:11:46;9.80;99.90
52187;DHT22;38161;53.020;6.598;2024-03-22T08:14:12;9.80;99.90
52187;DHT22;38161;53.020;6.598;2024-03-22T08:16:37;9.80;99.90
52187;DHT22;38161;53.020;6.598;2024-03-22T08:19:03;9.80;99.90
52187;DHT22;38161;53.020;6.598;2024-03-22T08:21:29;9.80;99.90
52187;DHT22;38161;53.020;6.598;2024-03-22T08:23:55;9.80;99.90
52187;DHT22;38161;53.020;6.598;2024-03-22T08:26:21;9.80;99.90
52187;DHT22;38161;53.020;6.598;2024-03-22T08:28:47;9.80;99.90
52187;DHT22;38161;53.020;6.598;2024-03-22T08:31:14;9.80;99.90
52187;DHT22;38161;53.020;6.598;2024-03-22T08:33:40;9.80;99.90
52187;DHT22;38161;53.020;6.598;2024-03-22T08:36:06;9.80;99.90
52187;DHT22;38161;53.020;6.598;2024-03-22T08:38:32;9.80;99.90
52187;DHT22;38161;53.020;6.598;2024-03-22T08:40:58;9.80;99.90
52187;DHT22;38161;53.020;6.598;2024-03-22T08:43:24;9.80;99.90
52187;DHT22;38161;53.020;6.598;2024-03-22T08:45:55;9.80;99.90
52187;DHT22;38161;53.020;6.598;2024-03-22T08:48:21;9.80;99.90
52187;DHT22;38161;53.020;6.598;2024-03-22T08:50:47;9.80;99.90
52187;DHT22;38161;53.020;6.598;2024-03-22T08:53:12;9.80;99.90
52187;DHT22;38161;53.020;6.598;2024-03-22T08:55:45;9.80;99.90
52187;DHT22;38161;53.020;6.598;2024-03-22T08:58:11;9.80;99.90
52187;DHT22;38161;53.020;6.598;2024-03-22T09:00:36;9.80;99.90
52187;DHT22;38161;53.020;6.598;2024-03-22T09:03:03;9.80;99.90
52187;DHT22;38161;53.020;6.598;2024-03-22T09:05:29;9.80;99.90
52187;DHT22;38161;53.020;6.598;2024-03-22T09:07:55;9.90;99.90
52187;DHT22;38161;53.020;6.598;2024-03-22T09:10:22;9.80;99.90
52187;DHT22;38161;53.020;6.598;2024-03-22T09:12:48;9.90;99.90
52187;DHT22;38161;53.020;6.598;2024-03-22T09:15:14;9.90;99.90
52187;DHT22;38161;53.020;6.598;2024-03-22T09:17:39;9.80;99.90
52187;DHT22;38161;53.020;6.598;2024-03-22T09:20:06;9.80;99.90
52187;DHT22;38161;53.020;6.598;2024-03-22T09:22:33;9.90;99.90
52187;DHT22;38161;53.020;6.598;2024-03-22T09:24:59;9.90;99.90
52187;DHT22;38161;53.020;6.598;2024-03-22T09:27:25;9.80;99.90
52187;DHT22;38161;53.020;6.598;2024-03-22T09:29:51;9.90;99.90
52187;DHT22;38161;53.020;6.598;2024-03-22T09:32:18;9.90;99.90
52187;DHT22;38161;53.020;6.598;2024-03-22T09:34:44;9.90;99.90
52187;DHT22;38161;53.020;6.598;2024-03-22T09:37:09;9.90;99.90
52187;DHT22;38161;53.020;6.598;2024-03-22T09:39:35;9.90;99.90
52187;DHT22;38161;53.020;6.598;2024-03-22T09:42:05;9.90;99.90
52187;DHT22;38161;53.020;6.598;2024-03-22T09:44:32;9.90;99.90
52187;DHT22;38161;53.020;6.598;2024-03-22T09:46:59;9.90;99.90
52187;DHT22;38161;53.020;6.598;2024-03-22T09:49:25;9.90;99.90
52187;DHT22;38161;53.020;6.598;2024-03-22T09:51:52;10.00;99.90
52187;DHT22;38161;53.020;6.598;2024-03-22T09:54:18;9.90;99.90
52187;DHT22;38161;53.020;6.598;2024-03-22T09:56:45;9.90;99.90
52187;DHT22;38161;53.020;6.598;2024-03-22T09:59:13;10.00;99.90
52187;DHT22;38161;53.020;6.598;2024-03-22T10:01:40;10.00;99.90
52187;DHT22;38161;53.020;6.598;2024-03-22T10:04:06;10.00;99.90
52187;DHT22;38161;53.020;6.598;2024-03-22T10:06:34;10.00;99.90
52187;DHT22;38161;53.020;6.598;2024-03-22T10:09:01;10.00;99.90
52187;DHT22;38161;53.020;6.598;2024-03-22T10:11:27;10.00;99.90
52187;DHT22;38161;53.020;6.598;2024-03-22T10:13:53;10.00;99.90
52187;DHT22;38161;53.020;6.598;2024-03-22T10:16:24;10.00;99.90
52187;DHT22;38161;53.020;6.598;2024-03-22T10:18:49;10.00;99.90
52187;DHT22;38161;53.020;6.598;2024-03-22T10:21:18;10.00;99.90
52187;DHT22;38161;53.020;6.598;2024-03-22T10:23:44;10.10;99.90
52187;DHT22;38161;53.020;6.598;2024-03-22T10:26:12;10.10;99.90
52187;DHT22;38161;53.020;6.598;2024-03-22T10:28:44;10.10;99.90
52187;DHT22;38161;53.020;6.598;2024-03-22T10:31:12;10.10;99.90
52187;DHT22;38161;53.020;6.598;2024-03-22T10:33:38;10.10;99.90
52187;DHT22;38161;53.020;6.598;2024-03-22T10:36:06;10.10;99.90
52187;DHT22;38161;53.020;6.598;2024-03-22T10:38:35;10.10;99.90
52187;DHT22;38161;53.020;6.598;2024-03-22T10:41:02;10.20;99.90
52187;DHT22;38161;53.020;6.598;2024-03-22T10:43:28;10.20;99.90
52187;DHT22;38161;53.020;6.598;2024-03-22T10:45:56;10.20;99.90
52187;DHT22;38161;53.020;6.598;2024-03-22T10:48:28;10.20;99.90
52187;DHT22;38161;53.020;6.598;2024-03-22T10:50:55;10.30;99.90
52187;DHT22;38161;53.020;6.598;2024-03-22T10:53:25;10.30;99.90
52187;DHT22;38161;53.020;6.598;2024-03-22T10:55:53;10.30;99.90
52187;DHT22;38161;53.020;6.598;2024-03-22T10:58:24;10.30;99.90
52187;DHT22;38161;53.020;6.598;2024-03-22T11:00:54;10.40;99.90
52187;DHT22;38161;53.020;6.598;2024-03-22T11:03:22;10.40;99.90
52187;DHT22;38161;53.020;6.598;2024-03-22T11:05:55;10.40;99.90
52187;DHT22;38161;53.020;6.598;2024-03-22T11:10:51;10.40;99.90
52187;DHT22;38161;53.020;6.598;2024-03-22T11:13:17;10.40;99.90
52187;DHT22;38161;53.020;6.598;2024-03-22T11:15:43;10.40;99.90
52187;DHT22;38161;53.020;6.598;2024-03-22T11:18:09;10.40;99.90
52187;DHT22;38161;53.020;6.598;2024-03-22T11:20:38;10.50;99.90
52187;DHT22;38161;53.020;6.598;2024-03-22T11:23:04;10.40;99.90
52187;DHT22;38161;53.020;6.598;2024-03-22T11:25:33;10.50;99.90
52187;DHT22;38161;53.020;6.598;2024-03-22T11:28:00;10.50;99.90
52187;DHT22;38161;53.020;6.598;2024-03-22T11:30:31;10.50;99.90
52187;DHT22;38161;53.020;6.598;2024-03-22T11:33:00;10.50;99.90
52187;DHT22;38161;53.020;6.598;2024-03-22T11:35:26;10.50;99.90
52187;DHT22;38161;53.020;6.598;2024-03-22T11:37:52;10.60;99.90
52187;DHT22;38161;53.020;6.598;2024-03-22T11:40:18;10.60;99.90
52187;DHT22;38161;53.020;6.598;2024-03-22T11:42:49;10.60;99.90
52187;DHT22;38161;53.020;6.598;2024-03-22T11:45:17;10.60;99.90
52187;DHT22;38161;53.020;6.598;2024-03-22T11:47:46;10.70;99.90
52187;DHT22;38161;53.020;6.598;2024-03-22T11:50:13;10.70;99.90
52187;DHT22;38161;53.020;6.598;2024-03-22T11:52:43;10.70;99.90
52187;DHT22;38161;53.020;6.598;2024-03-22T11:55:10;10.70;99.90
52187;DHT22;38161;53.020;6.598;2024-03-22T11:57:36;10.60;99.90
52187;DHT22;38161;53.020;6.598;2024-03-22T12:00:03;10.60;99.90
52187;DHT22;38161;53.020;6.598;2024-03-22T12:02:35;10.60;99.90
52187;DHT22;38161;53.020;6.598;2024-03-22T12:05:03;10.60;99.90
52187;DHT22;38161;53.020;6.598;2024-03-22T12:07:29;10.50;99.90
52187;DHT22;38161;53.020;6.598;2024-03-22T12:09:55;10.50;99.90
52187;DHT22;38161;53.020;6.598;2024-03-22T12:12:22;10.50;99.90
52187;DHT22;38161;53.020;6.598;2024-03-22T12:14:48;10.50;99.90
52187;DHT22;38161;53.020;6.598;2024-03-22T12:17:16;10.50;99.90
52187;DHT22;38161;53.020;6.598;2024-03-22T12:19:42;10.50;99.90
52187;DHT22;38161;53.020;6.598;2024-03-22T12:22:09;10.50;99.90
52187;DHT22;38161;53.020;6.598;2024-03-22T12:24:36;10.50;99.90
52187;DHT22;38161;53.020;6.598;2024-03-22T12:27:02;10.50;99.90
52187;DHT22;38161;53.020;6.598;2024-03-22T12:29:28;10.50;99.90
52187;DHT22;38161;53.020;6.598;2024-03-22T12:31:53;10.50;99.90
52187;DHT22;38161;53.020;6.598;2024-03-22T12:34:19;10.50;99.90
52187;DHT22;38161;53.020;6.598;2024-03-22T12:36:51;10.50;99.90
52187;DHT22;38161;53.020;6.598;2024-03-22T12:39:17;10.60;99.90
52187;DHT22;38161;53.020;6.598;2024-03-22T12:41:42;10.60;99.90
52187;DHT22;38161;53.020;6.598;2024-03-22T12:44:08;10.60;99.90
52187;DHT22;38161;53.020;6.598;2024-03-22T12:46:34;10.50;99.90
52187;DHT22;38161;53.020;6.598;2024-03-22T12:49:00;10.50;99.90
52187;DHT22;38161;53.020;6.598;2024-03-22T12:51:29;10.50;99.90
52187;DHT22;38161;53.020;6.598;2024-03-22T12:53:55;10.50;99.90
52187;DHT22;38161;53.020;6.598;2024-03-22T12:56:21;10.50;99.90
52187;DHT22;38161;53.020;6.598;2024-03-22T12:58:47;10.50;99.90
52187;DHT22;38161;53.020;6.598;2024-03-22T13:01:13;10.50;99.90
52187;DHT22;38161;53.020;6.598;2024-03-22T13:03:39;10.50;99.90
52187;DHT22;38161;53.020;6.598;2024-03-22T13:06:05;10.50;99.90
52187;DHT22;38161;53.020;6.598;2024-03-22T13:08:34;10.50;99.90
52187;DHT22;38161;53.020;6.598;2024-03-22T13:11:00;10.50;99.90
52187;DHT22;38161;53.020;6.598;2024-03-22T13:13:26;10.50;99.90
52187;DHT22;38161;53.020;6.598;2024-03-22T13:15:51;10.60;99.90
52187;DHT22;38161;53.020;6.598;2024-03-22T13:18:17;10.60;99.90
52187;DHT22;38161;53.020;6.598;2024-03-22T13:20:43;10.60;99.90
52187;DHT22;38161;53.020;6.598;2024-03-22T13:23:09;10.60;99.90
52187;DHT22;38161;53.020;6.598;2024-03-22T13:25:37;10.60;99.90
52187;DHT22;38161;53.020;6.598;2024-03-22T13:28:06;10.60;99.90
52187;DHT22;38161;53.020;6.598;2024-03-22T13:30:32;10.50;99.90
52187;DHT22;38161;53.020;6.598;2024-03-22T13:32:58;10.50;99.90
52187;DHT22;38161;53.020;6.598;2024-03-22T13:35:24;10.40;99.90
52187;DHT22;38161;53.020;6.598;2024-03-22T13:37:50;10.40;99.90
52187;DHT22;38161;53.020;6.598;2024-03-22T13:40:16;10.40;99.90
52187;DHT22;38161;53.020;6.598;2024-03-22T13:42:42;10.40;99.90
52187;DHT22;38161;53.020;6.598;2024-03-22T13:45:08;10.40;99.90
52187;DHT22;38161;53.020;6.598;2024-03-22T13:47:33;10.40;99.90
52187;DHT22;38161;53.020;6.598;2024-03-22T13:50:01;10.40;99.90
52187;DHT22;38161;53.020;6.598;2024-03-22T13:52:27;10.30;99.90
52187;DHT22;38161;53.020;6.598;2024-03-22T13:54:53;10.30;99.90
52187;DHT22;38161;53.020;6.598;2024-03-22T13:57:19;10.30;99.90
52187;DHT22;38161;53.020;6.598;2024-03-22T13:59:44;10.30;99.90
52187;DHT22;38161;53.020;6.598;2024-03-22T14:02:11;10.20;99.90
52187;DHT22;38161;53.020;6.598;2024-03-22T14:04:37;10.30;99.90
52187;DHT22;38161;53.020;6.598;2024-03-22T14:07:03;10.20;99.90
52187;DHT22;38161;53.020;6.598;2024-03-22T14:09:33;10.20;99.90
52187;DHT22;38161;53.020;6.598;2024-03-22T14:11:59;10.20;99.90
52187;DHT22;38161;53.020;6.598;2024-03-22T14:14:26;10.20;99.90
52187;DHT22;38161;53.020;6.598;2024-03-22T14:16:52;10.30;99.90
52187;DHT22;38161;53.020;6.598;2024-03-22T14:19:19;10.20;99.90
52187;DHT22;38161;53.020;6.598;2024-03-22T14:21:45;10.20;99.90
52187;DHT22;38161;53.020;6.598;2024-03-22T14:24:12;10.20;99.90
52187;DHT22;38161;53.020;6.598;2024-03-22T14:26:38;10.30;99.90
52187;DHT22;38161;53.020;6.598;2024-03-22T14:29:11;10.30;99.90
52187;DHT22;38161;53.020;6.598;2024-03-22T14:31:37;10.20;99.90
52187;DHT22;38161;53.020;6.598;2024-03-22T14:34:04;10.20;99.90
52187;DHT22;38161;53.020;6.598;2024-03-22T14:36:31;10.20;99.90
52187;DHT22;38161;53.020;6.598;2024-03-22T14:38:57;10.20;99.90
52187;DHT22;38161;53.020;6.598;2024-03-22T14:41:24;10.10;99.90
52187;DHT22;38161;53.020;6.598;2024-03-22T14:43:49;10.10;99.90
52187;DHT22;38161;53.020;6.598;2024-03-22T14:46:16;10.00;99.90
52187;DHT22;38161;53.020;6.598;2024-03-22T14:48:55;10.00;99.90
52187;DHT22;38161;53.020;6.598;2024-03-22T14:51:21;10.00;99.90
52187;DHT22;38161;53.020;6.598;2024-03-22T14:53:47;10.00;99.90
52187;DHT22;38161;53.020;6.598;2024-03-22T14:56:12;10.00;99.90
52187;DHT22;38161;53.020;6.598;2024-03-22T14:58:40;9.90;99.90
52187;DHT22;38161;53.020;6.598;2024-03-22T15:01:05;9.90;99.90
52187;DHT22;38161;53.020;6.598;2024-03-22T15:03:32;9.80;99.90
52187;DHT22;38161;53.020;6.598;2024-03-22T15:05:59;9.80;99.90
52187;DHT22;38161;53.020;6.598;2024-03-22T15:08:26;9.80;99.90
52187;DHT22;38161;53.020;6.598;2024-03-22T15:10:52;9.80;99.90
52187;DHT22;38161;53.020;6.598;2024-03-22T15:13:18;9.80;99.90
52187;DHT22;38161;53.020;6.598;2024-03-22T15:18:20;9.70;99.90
52187;DHT22;38161;53.020;6.598;2024-03-22T15:20:46;9.70;99.90
52187;DHT22;38161;53.020;6.598;2024-03-22T15:23:13;9.70;99.90
52187;DHT22;38161;53.020;6.598;2024-03-22T15:25:38;9.70;99.90
52187;DHT22;38161;53.020;6.598;2024-03-22T15:28:04;9.60;99.90
52187;DHT22;38161;53.020;6.598;2024-03-22T15:30:30;9.60;99.90
52187;DHT22;38161;53.020;6.598;2024-03-22T15:32:56;9.60;99.90
52187;DHT22;38161;53.020;6.598;2024-03-22T15:35:22;9.60;99.90
52187;DHT22;38161;53.020;6.598;2024-03-22T15:37:47;9.60;99.90